Time;durP1;ratioP1;P1;durP2;ratioP2;P2;SDS_P1;SDS_P2;PMS_P1;PMS_P2;Temp;Humidity;BMP_temperature;BMP_pressure;BME280_temperature;BME280_humidity;BME280_pressure;Samples;Min_cycle;Max_cycle;Signal;HPM_P1;HPM_P2
2021/03/11 00:01:57;;;;;;;1999.90;999.90;;;;;;;0.51;53.76;98485.09;5027468;28;20056;-65
2021/03/11 00:04:23;;;;;;;1999.90;999.90;;;;;;;0.50;53.90;98479.91;5026022;28;20045;-66
2021/03/11 00:06:49;;;;;;;1999.90;999.90;;;;;;;0.51;53.86;98474.19;5028584;28;20053;-66
2021/03/11 00:09:15;;;;;;;1999.90;999.90;;;;;;;0.68;53.40;98471.34;5025498;28;20049;-66
2021/03/11 00:11:41;;;;;;;1999.90;999.90;;;;;;;0.83;53.96;98473.41;5027298;28;20045;-66
2021/03/11 00:14:07;;;;;;;1999.90;999.90;;;;;;;0.74;53.21;98471.41;5029049;28;20118;-66
2021/03/11 00:16:33;;;;;;;1999.90;999.90;;;;;;;0.72;53.01;98476.31;5027806;28;20111;-66
2021/03/11 00:19:00;;;;;;;1999.90;999.90;;;;;;;0.69;53.11;98473.00;5025944;28;20053;-66
2021/03/11 00:21:26;;;;;;;1999.90;999.90;;;;;;;0.71;53.40;98467.31;5028921;28;20447;-66
2021/03/11 00:23:52;;;;;;;1999.90;999.90;;;;;;;0.45;53.49;98460.81;5022691;28;20111;-66
2021/03/11 00:26:18;;;;;;;1999.90;999.90;;;;;;;0.58;53.18;98456.84;5026861;28;20053;-66
2021/03/11 00:28:44;;;;;;;1999.90;999.90;;;;;;;0.61;53.33;98459.88;5024047;28;20045;-66
2021/03/11 00:31:10;;;;;;;1999.90;999.90;;;;;;;0.52;53.64;98450.53;5026429;28;20053;-66
2021/03/11 00:33:36;;;;;;;1999.90;999.90;;;;;;;0.58;53.53;98460.41;5022758;28;20045;-66
2021/03/11 00:36:03;;;;;;;1999.90;999.90;;;;;;;0.61;53.30;98459.88;5025022;28;20053;-66
2021/03/11 00:38:29;;;;;;;1999.90;999.90;;;;;;;0.62;53.59;98466.94;5023192;28;20049;-66
2021/03/11 00:40:55;;;;;;;1999.90;999.90;;;;;;;0.55;53.15;98463.59;5021138;28;20053;-66
2021/03/11 00:43:21;;;;;;;1999.90;999.90;;;;;;;0.35;53.31;98456.88;5029703;28;20049;-66
2021/03/11 00:45:49;;;;;;;1999.90;999.90;;;;;;;0.32;53.12;98454.69;5026675;28;20547;-66
2021/03/11 00:48:15;;;;;;;1999.90;999.90;;;;;;;0.53;54.24;98458.41;5020512;28;21042;-65
2021/03/11 00:50:42;;;;;;;1999.90;999.90;;;;;;;0.67;53.34;98460.72;5028217;28;20453;-66
2021/03/11 00:53:08;;;;;;;1999.90;999.90;;;;;;;0.59;52.60;98463.94;5028673;28;20056;-66
2021/03/11 00:55:34;;;;;;;1999.90;999.90;;;;;;;0.31;53.71;98455.78;5028401;28;20049;-66
2021/03/11 00:58:00;;;;;;;1999.90;999.90;;;;;;;0.34;53.60;98449.81;5029448;28;20045;-66
2021/03/11 01:00:26;;;;;;;1999.90;999.90;;;;;;;0.12;53.37;98451.72;5028290;28;20041;-66
2021/03/11 01:02:52;;;;;;;1999.90;999.90;;;;;;;0.29;53.34;98446.22;5027641;28;20686;-66
2021/03/11 01:05:24;;;;;;;1999.90;999.90;;;;;;;-0.29;54.42;98440.41;5024764;28;20045;-66
2021/03/11 01:07:50;;;;;;;1999.90;999.90;;;;;;;-0.38;54.98;98438.09;5027141;28;20487;-66
2021/03/11 01:10:17;;;;;;;1999.90;999.90;;;;;;;-0.26;55.28;98434.44;5026070;28;20085;-65
2021/03/11 01:12:43;;;;;;;1999.90;999.90;;;;;;;-0.32;54.85;98435.47;5027058;28;20083;-65
2021/03/11 01:15:09;;;;;;;1999.90;999.90;;;;;;;-0.19;54.63;98441.34;5027334;28;20497;-65
2021/03/11 01:17:36;;;;;;;1999.90;999.90;;;;;;;-0.26;54.43;98434.44;5025776;28;20049;-65
2021/03/11 01:20:15;;;;;;;1999.90;999.90;;;;;;;-0.23;54.38;98431.22;5026250;28;20053;-65
2021/03/11 01:22:41;;;;;;;1999.90;999.90;;;;;;;-0.16;55.00;98414.72;5021609;28;20066;-66
2021/03/11 01:25:08;;;;;;;1999.90;999.90;;;;;;;-0.23;54.58;98423.88;5019253;28;20045;-66
2021/03/11 01:27:34;;;;;;;1999.90;999.90;;;;;;;-0.08;54.36;98420.53;5023961;28;20103;-66
2021/03/11 01:30:04;;;;;;;1999.90;999.90;;;;;;;-0.24;54.43;98415.97;5026549;28;20080;-66
2021/03/11 01:32:30;;;;;;;1999.90;999.90;;;;;;;-0.23;54.47;98413.00;5023318;28;20057;-66
2021/03/11 01:34:56;;;;;;;1999.90;999.90;;;;;;;-0.42;54.99;98401.63;5025475;28;20570;-66
2021/03/11 01:37:22;;;;;;;1999.90;999.90;;;;;;;-0.02;54.24;98397.75;5022153;28;20484;-66
2021/03/11 01:39:48;;;;;;;1999.90;999.90;;;;;;;-0.12;53.78;98392.22;5023787;28;20456;-66
2021/03/11 01:42:15;;;;;;;1999.90;999.90;;;;;;;-0.37;54.60;98385.41;5025821;28;20516;-66
2021/03/11 01:44:41;;;;;;;1999.90;999.90;;;;;;;-0.57;55.78;98377.00;5027472;28;20057;-66
2021/03/11 01:47:07;;;;;;;1999.90;999.90;;;;;;;-0.57;55.66;98374.28;5019885;28;20050;-66
2021/03/11 01:49:35;;;;;;;1999.90;999.90;;;;;;;-0.69;56.42;98366.25;5026850;28;20056;-66
2021/03/11 01:52:01;;;;;;;1999.90;999.90;;;;;;;-0.46;55.48;98365.19;5027284;28;20075;-66
2021/03/11 01:54:36;;;;;;;1999.90;999.90;;;;;;;-0.01;54.45;98365.97;5011420;28;20115;-66
2021/03/11 01:57:03;;;;;;;1999.90;999.90;;;;;;;-0.14;54.15;98360.94;5025804;28;20091;-66
2021/03/11 01:59:29;;;;;;;1999.90;999.90;;;;;;;-0.32;54.84;98356.66;5013024;28;20042;-66
2021/03/11 02:01:57;;;;;;;1999.90;999.90;;;;;;;-0.64;55.72;98360.91;5024640;28;20103;-66
2021/03/11 02:04:23;;;;;;;1999.90;999.90;;;;;;;-0.55;55.77;98361.28;5023928;28;20050;-66
2021/03/11 02:06:51;;;;;;;1999.90;999.90;;;;;;;-0.11;55.30;98353.06;5026511;28;20057;-66
2021/03/11 02:09:18;;;;;;;1999.90;999.90;;;;;;;-0.08;54.83;98344.41;5023008;28;20505;-66
2021/03/11 02:12:02;;;;;;;1999.90;999.90;;;;;;;-0.36;55.42;98348.19;5024274;28;20416;-66
2021/03/11 02:14:50;;;;;;;1999.90;999.90;;;;;;;-0.26;55.58;98347.47;5024647;28;20053;-66
2021/03/11 02:17:20;;;;;;;1999.90;999.90;;;;;;;-0.43;55.49;98337.50;5019270;28;20054;-66
2021/03/11 02:20:02;;;;;;;1999.90;999.90;;;;;;;-0.51;56.01;98339.84;5024499;28;20124;-66
2021/03/11 02:22:40;;;;;;;1999.90;999.90;;;;;;;-0.45;55.03;98336.94;5023568;28;20421;-66
2021/03/11 02:25:18;;;;;;;1999.90;999.90;;;;;;;-0.47;55.64;98336.38;5025144;28;20506;-66
2021/03/11 02:28:04;;;;;;;1999.90;999.90;;;;;;;-0.41;55.45;98329.91;5021649;28;20107;-66
2021/03/11 02:30:33;;;;;;;1999.90;999.90;;;;;;;-0.47;55.80;98336.38;5021737;28;20543;-66
2021/03/11 02:33:00;;;;;;;1999.90;999.90;;;;;;;-0.64;56.20;98335.63;5021445;28;20056;-66
2021/03/11 02:35:28;;;;;;;1999.90;999.90;;;;;;;-0.45;56.17;98327.97;5027184;28;20053;-66
2021/03/11 02:37:56;;;;;;;1999.90;999.90;;;;;;;-0.80;56.82;98321.06;5023211;28;20468;-66
2021/03/11 02:40:30;;;;;;;1999.90;999.90;;;;;;;-1.13;57.93;98315.47;5017842;28;20081;-66
2021/03/11 02:42:58;;;;;;;1999.90;999.90;;;;;;;-1.11;57.69;98310.59;5026622;28;20100;-65
2021/03/11 02:45:30;;;;;;;1999.90;999.90;;;;;;;-1.32;58.66;98304.06;5025401;28;20076;-66
2021/03/11 02:48:00;;;;;;;1999.90;999.90;;;;;;;-1.11;58.24;98305.16;5027467;28;20046;-66
2021/03/11 02:50:28;;;;;;;1999.90;999.90;;;;;;;-0.81;57.57;98303.91;5026018;28;20049;-66
2021/03/11 02:52:55;;;;;;;1999.90;999.90;;;;;;;-0.74;57.24;98293.69;5023377;28;20120;-66
2021/03/11 02:55:22;;;;;;;1999.90;999.90;;;;;;;-1.01;57.83;98293.63;5023230;28;20057;-65
2021/03/11 02:57:52;;;;;;;1999.90;999.90;;;;;;;-0.87;57.81;98290.53;5023598;28;20084;-66
2021/03/11 03:00:21;;;;;;;1999.90;999.90;;;;;;;-1.43;58.66;98286.81;5013538;28;20037;-66
2021/03/11 03:02:48;;;;;;;1999.90;999.90;;;;;;;-1.31;59.54;98284.00;5026341;28;20053;-66
2021/03/11 03:05:18;;;;;;;1999.90;999.90;;;;;;;-1.03;58.20;98278.66;5026108;28;20456;-66
2021/03/11 03:07:45;;;;;;;1999.90;999.90;;;;;;;-1.24;58.57;98270.25;5023269;28;20080;-65
2021/03/11 03:10:19;;;;;;;1999.90;999.90;;;;;;;-1.50;59.61;98272.59;5018621;28;20037;-66
2021/03/11 03:12:49;;;;;;;1999.90;999.90;;;;;;;-1.51;59.80;98270.94;5027371;28;20053;-66
2021/03/11 03:15:18;;;;;;;1999.90;999.90;;;;;;;-1.70;59.98;98278.53;5027654;28;20049;-66
2021/03/11 03:17:46;;;;;;;1999.90;999.90;;;;;;;-1.61;60.00;98274.34;5009880;28;20057;-66
2021/03/11 03:20:14;;;;;;;1999.90;999.90;;;;;;;-1.59;59.65;98274.09;5025908;28;20041;-65
2021/03/11 03:22:40;;;;;;;1999.90;999.90;;;;;;;-1.52;59.75;98269.34;5026097;28;20054;-65
2021/03/11 03:25:12;;;;;;;1999.90;999.90;;;;;;;-1.46;59.64;98272.91;5029612;28;20208;-66
2021/03/11 03:27:39;;;;;;;1999.90;999.90;;;;;;;-1.47;59.34;98269.41;5018607;28;20049;-66
2021/03/11 03:30:26;;;;;;;1999.90;999.90;;;;;;;-1.37;59.56;98262.47;5019638;28;20058;-65
2021/03/11 03:32:53;;;;;;;1999.90;999.90;;;;;;;-1.27;58.81;98262.59;5018773;28;20049;-66
2021/03/11 03:35:22;;;;;;;1999.90;999.90;;;;;;;-0.99;58.00;98266.22;5027519;28;20042;-66
2021/03/11 03:37:50;;;;;;;1999.90;999.90;;;;;;;-0.93;57.88;98276.88;5028545;28;20046;-65
2021/03/11 03:40:19;;;;;;;1999.90;999.90;;;;;;;-1.08;58.28;98263.13;5029302;28;20562;-66
2021/03/11 03:42:50;;;;;;;1999.90;999.90;;;;;;;-1.42;59.26;98255.88;5020014;28;20056;-66
2021/03/11 03:45:26;;;;;;;1999.90;999.90;;;;;;;-1.42;59.22;98250.47;5030209;28;20119;-65
2021/03/11 03:47:56;;;;;;;1999.90;999.90;;;;;;;-1.43;59.67;98237.16;5029964;28;20045;-65
2021/03/11 03:50:23;;;;;;;1999.90;999.90;;;;;;;-1.21;59.02;98245.31;5027189;28;20041;-65
2021/03/11 03:52:51;;;;;;;1999.90;999.90;;;;;;;-1.37;59.39;98241.59;5026750;28;20570;-65
2021/03/11 03:55:18;;;;;;;1999.90;999.90;;;;;;;-1.38;59.41;98241.84;5025693;28;20057;-65
2021/03/11 03:57:54;;;;;;;1999.90;999.90;;;;;;;-1.37;59.13;98235.34;5029241;28;20056;-65
2021/03/11 04:00:22;;;;;;;1999.90;999.90;;;;;;;-1.61;59.70;98230.13;5030726;28;20064;-66
2021/03/11 04:02:52;;;;;;;1999.90;999.90;;;;;;;-1.57;59.83;98235.88;5026033;28;20053;-65
2021/03/11 04:05:19;;;;;;;1999.90;999.90;;;;;;;-1.19;58.44;98232.34;5028985;28;20057;-66
2021/03/11 04:07:46;;;;;;;1999.90;999.90;;;;;;;-1.47;58.81;98231.41;5026637;28;20045;-65
2021/03/11 04:10:14;;;;;;;1999.90;999.90;;;;;;;-1.18;58.14;98227.72;5022994;28;20041;-65
2021/03/11 04:12:42;;;;;;;1999.90;999.90;;;;;;;-0.87;57.73;98226.19;5023114;28;20516;-65
2021/03/11 04:15:09;;;;;;;1999.90;999.90;;;;;;;-0.87;56.52;98226.19;5029141;28;20046;-65
2021/03/11 04:17:36;;;;;;;1999.90;999.90;;;;;;;-0.93;56.24;98221.78;5009584;28;20455;-66
2021/03/11 04:20:05;;;;;;;1999.90;999.90;;;;;;;-0.93;56.72;98213.63;5020700;28;20128;-65
2021/03/11 04:22:33;;;;;;;1999.90;999.90;;;;;;;-0.87;56.38;98215.34;5026595;28;20053;-65
2021/03/11 04:25:01;;;;;;;1999.90;999.90;;;;;;;-0.82;56.46;98215.41;5018056;28;20045;-66
2021/03/11 04:27:27;;;;;;;1999.90;999.90;;;;;;;-1.06;56.92;98203.97;5026446;28;20053;-65
2021/03/11 04:29:55;;;;;;;1999.90;999.90;;;;;;;-0.77;56.19;98206.50;5018697;28;20049;-65
2021/03/11 04:32:22;;;;;;;1999.90;999.90;;;;;;;-0.85;55.58;98198.78;5020081;28;20060;-66
2021/03/11 04:34:48;;;;;;;1999.90;999.90;;;;;;;-0.73;55.98;98203.00;5024263;28;20481;-65
2021/03/11 04:37:15;;;;;;;1999.90;999.90;;;;;;;-0.75;55.83;98204.31;5011186;28;20409;-66
2021/03/11 04:39:42;;;;;;;1999.90;999.90;;;;;;;-1.04;56.31;98209.16;5025614;28;20052;-66
2021/03/11 04:42:09;;;;;;;1999.90;999.90;;;;;;;-0.83;56.19;98202.91;5024184;28;20080;-66
2021/03/11 04:44:35;;;;;;;1999.90;999.90;;;;;;;-0.72;55.85;98210.06;5028160;28;20108;-66
2021/03/11 04:47:02;;;;;;;1999.90;999.90;;;;;;;-0.57;55.48;98203.97;5025614;28;20049;-65
2021/03/11 04:49:31;;;;;;;1999.90;999.90;;;;;;;-0.44;54.96;98204.63;5023353;28;20045;-65
2021/03/11 04:51:59;;;;;;;1999.90;999.90;;;;;;;-0.86;55.66;98199.84;5021655;28;20046;-66
2021/03/11 04:54:26;;;;;;;1999.90;999.90;;;;;;;-0.72;56.08;98198.38;5022438;28;20169;-65
2021/03/11 04:56:53;;;;;;;1999.90;999.90;;;;;;;-1.16;56.42;98193.84;5021797;28;20103;-65
2021/03/11 04:59:20;;;;;;;1999.90;999.90;;;;;;;-1.07;56.67;98195.03;5023496;28;20088;-65
2021/03/11 05:01:55;;;;;;;1999.90;999.90;;;;;;;-0.82;56.38;98199.13;5022203;28;20053;-66
2021/03/11 05:04:22;;;;;;;1999.90;999.90;;;;;;;-1.03;56.65;98189.09;5027767;28;20132;-65
2021/03/11 05:06:48;;;;;;;1999.90;999.90;;;;;;;-1.26;57.94;98178.25;5026706;28;20068;-65
2021/03/11 05:09:14;;;;;;;1999.90;999.90;;;;;;;-0.93;57.19;98172.91;5016439;28;20528;-65
2021/03/11 05:11:44;;;;;;;1999.90;999.90;;;;;;;-0.99;56.89;98176.66;5023775;28;20053;-65
2021/03/11 05:14:10;;;;;;;1999.90;999.90;;;;;;;-0.74;56.39;98170.69;5020740;28;20099;-65
2021/03/11 05:16:36;;;;;;;1999.90;999.90;;;;;;;-0.87;57.09;98169.19;5023041;28;21205;-65
2021/03/11 05:19:03;;;;;;;1999.90;999.90;;;;;;;-0.78;56.77;98166.81;5019697;28;20057;-65
2021/03/11 05:21:29;;;;;;;1999.90;999.90;;;;;;;-0.62;56.13;98154.22;5022880;28;20053;-65
2021/03/11 05:23:57;;;;;;;1999.90;999.90;;;;;;;-0.95;57.21;98154.16;5019550;28;20197;-66
2021/03/11 05:26:24;;;;;;;1999.90;999.90;;;;;;;-1.35;58.11;98151.81;5018655;28;20417;-66
2021/03/11 05:28:50;;;;;;;1999.90;999.90;;;;;;;-1.45;58.57;98147.88;5006025;28;20075;-66
2021/03/11 05:31:16;;;;;;;1999.90;999.90;;;;;;;-1.34;58.26;98143.44;5020783;28;20451;-66
2021/03/11 05:33:42;;;;;;;1999.90;999.90;;;;;;;-1.26;58.00;98142.16;5018718;28;20065;-66
2021/03/11 05:36:09;;;;;;;1999.90;999.90;;;;;;;-1.31;58.06;98126.63;5020514;28;20791;-66
2021/03/11 05:38:35;;;;;;;1999.90;999.90;;;;;;;-1.44;59.14;98132.44;5022048;28;20056;-66
2021/03/11 05:41:02;;;;;;;1999.90;999.90;;;;;;;-1.02;57.94;98118.25;5015536;28;20471;-66
2021/03/11 05:43:29;;;;;;;1999.90;999.90;;;;;;;-0.82;57.42;98112.22;5016671;28;20053;-66
2021/03/11 05:45:57;;;;;;;1999.90;999.90;;;;;;;-1.45;58.89;98112.63;5020169;28;20258;-66
2021/03/11 05:48:26;;;;;;;1999.90;999.90;;;;;;;-1.32;58.94;98111.44;5015986;28;20049;-66
2021/03/11 05:50:52;;;;;;;1999.90;999.90;;;;;;;-1.33;58.77;98109.78;5022918;28;20097;-66
2021/03/11 05:53:20;;;;;;;1999.90;999.90;;;;;;;-1.27;59.08;98106.03;5003486;28;20055;-66
2021/03/11 05:55:46;;;;;;;1999.90;999.90;;;;;;;-1.02;58.06;98101.16;5021348;28;20053;-66
2021/03/11 05:58:12;;;;;;;1999.90;999.90;;;;;;;-1.58;60.08;98109.50;5021026;28;20058;-66
2021/03/11 06:00:39;;;;;;;1999.90;999.90;;;;;;;-1.02;59.31;98109.31;5014856;28;20054;-65
2021/03/11 06:03:06;;;;;;;1999.90;999.90;;;;;;;-0.97;58.15;98102.03;5019847;28;20058;-66
2021/03/11 06:05:33;;;;;;;1999.90;999.90;;;;;;;-0.94;58.79;98111.53;5022152;28;20145;-66
2021/03/11 06:08:01;;;;;;;1999.90;999.90;;;;;;;-0.61;58.13;98096.09;5021879;28;20056;-66
2021/03/11 06:10:28;;;;;;;1999.90;999.90;;;;;;;-0.45;57.47;98094.31;5022598;28;20073;-66
2021/03/11 06:12:55;;;;;;;1999.90;999.90;;;;;;;-0.44;57.48;98087.81;5019403;28;20069;-66
2021/03/11 06:15:31;;;;;;;1999.90;999.90;;;;;;;-0.31;57.30;98089.25;5023892;28;20099;-66
2021/03/11 06:18:08;;;;;;;1999.90;999.90;;;;;;;-0.26;56.81;98086.59;5021643;28;20495;-65
2021/03/11 06:20:35;;;;;;;1999.90;999.90;;;;;;;-0.39;57.06;98083.25;5019479;28;20046;-66
2021/03/11 06:23:02;;;;;;;1999.90;999.90;;;;;;;0.15;55.81;98087.66;5020853;28;20050;-66
2021/03/11 06:25:28;;;;;;;1999.90;999.90;;;;;;;0.02;55.44;98081.88;5014331;28;20108;-66
2021/03/11 06:27:59;;;;;;;1999.90;999.90;;;;;;;0.12;55.21;98076.47;5016902;28;20053;-66
2021/03/11 06:30:41;;;;;;;1999.90;999.90;;;;;;;0.34;54.84;98074.41;5017577;28;20053;-66
2021/03/11 06:33:07;;;;;;;1999.90;999.90;;;;;;;0.05;55.10;98071.28;5016544;28;20052;-65
2021/03/11 06:35:35;;;;;;;1999.90;999.90;;;;;;;0.41;54.52;98067.91;5018885;28;20053;-66
2021/03/11 06:38:01;;;;;;;1999.90;999.90;;;;;;;0.53;53.94;98061.13;5021508;28;20057;-66
2021/03/11 06:40:29;;;;;;;1999.90;999.90;;;;;;;0.25;54.99;98067.00;5018037;28;20049;-64
2021/03/11 06:43:09;;;;;;;1999.90;999.90;;;;;;;0.56;54.72;98067.94;5021496;28;20056;-64
2021/03/11 06:45:36;;;;;;;1999.90;999.90;;;;;;;0.63;54.46;98065.78;5019872;28;20061;-64
2021/03/11 06:48:19;;;;;;;1999.90;999.90;;;;;;;1.03;53.07;98058.00;5026706;28;20045;-64
2021/03/11 06:50:45;;;;;;;1999.90;999.90;;;;;;;1.00;52.63;98056.63;5020349;28;20053;-66
2021/03/11 06:53:11;;;;;;;1999.90;999.90;;;;;;;0.97;53.13;98043.53;5024776;28;20103;-64
2021/03/11 06:55:37;;;;;;;1999.90;999.90;;;;;;;1.09;53.02;98056.91;5014891;28;20053;-64
2021/03/11 06:58:25;;;;;;;1999.90;999.90;;;;;;;1.12;52.74;98050.13;5011060;28;20057;-64
2021/03/11 07:01:05;;;;;;;1999.90;999.90;;;;;;;1.20;52.52;98053.09;5015342;28;20057;-64
2021/03/11 07:03:39;;;;;;;1999.90;999.90;;;;;;;1.12;52.61;98055.56;5008323;28;20103;-64
2021/03/11 07:06:06;;;;;;;1999.90;999.90;;;;;;;1.00;52.76;98059.34;5026469;28;20049;-65
2021/03/11 07:08:33;;;;;;;1999.90;999.90;;;;;;;1.23;53.04;98059.91;5026053;28;20049;-64
2021/03/11 07:11:05;;;;;;;1999.90;999.90;;;;;;;1.61;52.15;98056.88;5022125;28;20085;-65
2021/03/11 07:13:41;;;;;;;;;;;;;;;1.92;51.50;98046.75;5025463;28;20057;-65
2021/03/11 07:16:14;;;;;;;1999.90;999.90;;;;;;;2.05;51.56;98057.06;5022758;28;20399;-64
2021/03/11 07:18:41;;;;;;;1999.90;999.90;;;;;;;2.31;51.65;98045.25;5000623;28;20060;-64
2021/03/11 07:21:08;;;;;;;1999.90;999.90;;;;;;;2.27;51.11;98045.00;5019454;28;20433;-64
2021/03/11 07:23:49;;;;;;;1999.90;999.90;;;;;;;2.08;51.36;98040.19;5022014;28;20056;-64
2021/03/11 07:26:17;;;;;;;1999.90;999.90;;;;;;;2.27;51.43;98043.09;5017377;28;20057;-64
2021/03/11 07:28:44;;;;;;;1999.90;999.90;;;;;;;2.26;51.17;98032.47;5013233;28;20060;-64
2021/03/11 07:31:11;;;;;;;1999.90;999.90;;;;;;;2.23;51.00;98024.84;5017012;28;20045;-64
2021/03/11 07:33:38;;;;;;;1999.90;999.90;;;;;;;2.36;51.08;98034.34;5011995;28;20351;-65
2021/03/11 07:36:07;;;;;;;1999.90;999.90;;;;;;;2.21;50.74;98032.50;5015182;28;20050;-64
2021/03/11 07:38:35;;;;;;;1999.90;999.90;;;;;;;2.74;50.30;98024.59;5018688;28;20061;-65
2021/03/11 07:41:06;;;;;;;1999.90;999.90;;;;;;;2.38;49.94;98024.78;5026688;28;20409;-65
2021/03/11 07:43:33;;;;;;;1999.90;999.90;;;;;;;2.23;50.79;98030.28;5018316;28;20164;-65
2021/03/11 07:46:05;;;;;;;1999.90;999.90;;;;;;;2.37;50.20;98028.59;5018225;28;20050;-64
2021/03/11 07:48:32;;;;;;;1999.90;999.90;;;;;;;2.42;49.77;98020.38;5017464;28;20061;-65
2021/03/11 07:51:01;;;;;;;1999.90;999.90;;;;;;;2.96;49.43;98023.34;5018354;28;20448;-64
2021/03/11 07:53:28;;;;;;;1999.90;999.90;;;;;;;2.52;49.15;98018.72;5020995;28;20053;-65
2021/03/11 07:55:55;;;;;;;1999.90;999.90;;;;;;;2.95;48.86;98014.34;5019976;28;20054;-65
2021/03/11 07:58:39;;;;;;;1999.90;999.90;;;;;;;3.10;48.54;98007.94;5002531;28;20080;-65
2021/03/11 08:01:06;;;;;;;1999.90;999.90;;;;;;;3.40;48.42;98011.53;5017848;28;20414;-65
2021/03/11 08:03:36;;;;;;;1999.90;999.90;;;;;;;3.21;48.67;98003.22;5017349;28;20060;-65
2021/03/11 08:06:20;;;;;;;1999.90;999.90;;;;;;;2.92;49.01;98008.66;5018302;28;20080;-65
2021/03/11 08:08:47;;;;;;;1999.90;999.90;;;;;;;2.97;48.57;98008.59;5005289;28;20115;-64
2021/03/11 08:11:40;;;;;;;1999.90;999.90;;;;;;;3.46;48.58;97998.63;5015521;28;20489;-65
2021/03/11 08:14:33;;;;;;;1999.90;999.90;;;;;;;3.43;48.55;97989.09;5017887;28;20058;-66
2021/03/11 08:17:39;;;;;;;1999.90;999.90;;;;;;;2.92;49.26;97981.34;5014231;28;20127;-65
2021/03/11 08:20:26;;;;;;;1999.90;999.90;;;;;;;2.95;49.47;97980.75;5018734;28;20053;-65
2021/03/11 08:25:24;;;;;;;1999.90;999.90;;;;;;;3.88;48.96;97978.81;5019610;28;20413;-65
2021/03/11 08:27:53;;;;;;;1999.90;999.90;;;;;;;4.00;48.28;97978.38;5021199;28;20543;-65
2021/03/11 08:30:40;;;;;;;1999.90;999.90;;;;;;;3.72;48.44;97969.09;5019945;28;20068;-65
2021/03/11 08:33:14;;;;;;;1999.90;999.90;;;;;;;3.70;48.32;97963.13;5021408;28;20317;-65
2021/03/11 08:35:42;;;;;;;1999.90;999.90;;;;;;;3.43;49.38;97953.56;5012620;28;20076;-65
2021/03/11 08:38:20;;;;;;;1999.90;999.90;;;;;;;3.64;49.55;97953.34;5018782;28;20050;-65
2021/03/11 08:41:04;;;;;;;1999.90;999.90;;;;;;;3.84;48.75;97952.28;5015181;28;20049;-65
2021/03/11 08:43:39;;;;;;;1999.90;999.90;;;;;;;3.65;50.16;97944.06;5016005;28;20049;-65
2021/03/11 08:46:17;;;;;;;1999.90;999.90;;;;;;;3.64;49.81;97932.28;5015568;28;20057;-65
2021/03/11 08:48:57;;;;;;;1999.90;999.90;;;;;;;3.78;48.87;97937.88;5012872;28;20049;-65
2021/03/11 08:51:24;;;;;;;1999.90;999.90;;;;;;;3.77;48.99;97938.97;5016331;28;20049;-65
2021/03/11 08:53:52;;;;;;;1999.90;999.90;;;;;;;3.92;48.78;97938.00;5021597;28;20060;-65
2021/03/11 08:56:18;;;;;;;1999.90;999.90;;;;;;;3.38;49.16;97918.09;5017612;28;20421;-65
2021/03/11 08:59:10;;;;;;;1999.90;999.90;;;;;;;3.82;48.44;97911.56;5020795;28;20396;-65
2021/03/11 09:01:40;;;;;;;1999.90;999.90;;;;;;;4.19;48.45;97904.50;5019779;28;20414;-65
2021/03/11 09:04:23;;;;;;;1999.90;999.90;;;;;;;3.60;48.34;97900.34;5017060;28;20115;-65
2021/03/11 09:06:51;;;;;;;;;;;;;;;3.48;49.05;97896.09;5021839;28;20064;-65
2021/03/11 09:09:33;;;;;;;1999.90;999.90;;;;;;;3.58;48.80;97894.34;5021202;28;20011;-65
2021/03/11 09:12:00;;;;;;;1999.90;999.90;;;;;;;4.04;48.10;97886.38;5020428;28;20053;-65
2021/03/11 09:14:27;;;;;;;1999.90;999.90;;;;;;;4.25;48.50;97863.41;5018457;28;20103;-65
2021/03/11 09:17:05;;;;;;;1999.90;999.90;;;;;;;4.13;48.13;97861.91;5019308;28;20049;-66
2021/03/11 09:20:04;;;;;;;1999.90;999.90;;;;;;;3.91;48.51;97857.00;5019995;28;20076;-65
2021/03/11 09:22:35;;;;;;;1999.90;999.90;;;;;;;4.00;48.76;97843.50;5011498;28;20162;-66
2021/03/11 09:25:05;;;;;;;1999.90;999.90;;;;;;;4.46;48.20;97822.84;5029865;28;20084;-65
2021/03/11 09:27:32;;;;;;;1999.90;999.90;;;;;;;4.35;48.51;97820.25;5022171;28;20057;-65
2021/03/11 09:30:17;;;;;;;1999.90;999.90;;;;;;;4.51;48.23;97820.84;5001486;28;20041;-65
2021/03/11 09:32:43;;;;;;;1999.90;999.90;;;;;;;4.17;48.54;97813.69;5016798;28;20049;-66
2021/03/11 09:35:12;;;;;;;1999.90;999.90;;;;;;;3.91;48.97;97807.78;5020550;28;20045;-65
2021/03/11 09:38:02;;;;;;;1999.90;999.90;;;;;;;3.92;49.24;97806.69;5021275;28;20053;-65
2021/03/11 09:40:46;;;;;;;1999.90;999.90;;;;;;;4.26;48.63;97788.38;5015764;28;20050;-65
2021/03/11 09:43:27;;;;;;;1999.90;999.90;;;;;;;4.40;47.73;97794.72;5021795;28;20424;-66
2021/03/11 09:45:57;;;;;;;1999.90;999.90;;;;;;;4.56;48.42;97781.59;5012784;28;20045;-65
2021/03/11 09:48:40;;;;;;;1999.90;999.90;;;;;;;5.02;47.72;97780.78;5016264;28;20051;-65
2021/03/11 09:51:20;;;;;;;1999.90;999.90;;;;;;;4.78;47.84;97770.00;5014215;28;20447;-65
2021/03/11 09:53:47;;;;;;;1999.90;999.90;;;;;;;4.82;47.13;97772.94;5017576;28;20092;-66
2021/03/11 09:56:28;;;;;;;1999.90;999.90;;;;;;;5.27;46.71;97767.69;5019109;28;20061;-66
2021/03/11 09:59:01;;;;;;;1999.90;999.90;;;;;;;5.43;46.32;97770.91;5019271;28;20543;-65
2021/03/11 10:01:32;;;;;;;1999.90;999.90;;;;;;;5.73;45.83;97758.50;5015800;28;20786;-65
2021/03/11 10:04:01;;;;;;;1999.90;999.90;;;;;;;6.02;44.78;97770.25;5022471;28;20180;-66
2021/03/11 10:06:28;;;;;;;1999.90;999.90;;;;;;;5.37;46.05;97756.50;5018407;28;20806;-65
2021/03/11 10:08:56;;;;;;;1999.90;999.90;;;;;;;5.60;45.78;97764.81;5022745;28;20053;-65
2021/03/11 10:11:33;;;;;;;1999.90;999.90;;;;;;;5.52;45.93;97751.81;5015508;28;20485;-66
2021/03/11 10:14:03;;;;;;;1999.90;999.90;;;;;;;5.84;45.77;97752.78;5016307;28;20053;-65
2021/03/11 10:16:32;;;;;;;1999.90;999.90;;;;;;;6.27;44.97;97744.91;5016312;28;20112;-66
2021/03/11 10:19:15;;;;;;;1999.90;999.90;;;;;;;5.91;45.83;97745.75;5017218;28;20045;-65
2021/03/11 10:21:47;;;;;;;1999.90;999.90;;;;;;;5.97;45.85;97733.56;5016388;28;20071;-66
2021/03/11 10:24:28;;;;;;;1999.90;999.90;;;;;;;5.97;45.39;97732.75;5020236;28;20049;-65
2021/03/11 10:26:54;;;;;;;1999.90;999.90;;;;;;;5.44;44.97;97723.19;5003099;28;20060;-65
2021/03/11 10:29:22;;;;;;;1999.90;999.90;;;;;;;5.26;45.59;97735.91;5016480;28;20053;-65
2021/03/11 10:31:48;;;;;;;1999.90;999.90;;;;;;;4.72;46.69;97727.38;5016367;28;20050;-65
2021/03/11 10:34:15;;;;;;;1999.90;999.90;;;;;;;4.86;46.97;97733.66;5016836;28;20049;-65
2021/03/11 10:36:58;;;;;;;1999.90;999.90;;;;;;;5.24;46.47;97718.94;5017672;28;20058;-65
2021/03/11 10:39:27;;;;;;;1999.90;999.90;;;;;;;4.84;46.85;97726.84;5013913;28;20442;-65
2021/03/11 10:42:05;;;;;;;1999.90;999.90;;;;;;;4.79;47.61;97714.06;5021214;28;20054;-65
2021/03/11 10:44:39;;;;;;;1999.90;999.90;;;;;;;4.98;47.16;97705.75;5015767;28;20115;-65
2021/03/11 10:47:16;;;;;;;1999.90;999.90;;;;;;;5.27;46.90;97701.91;5011629;28;20077;-66
2021/03/11 10:49:43;;;;;;;1999.90;999.90;;;;;;;4.99;46.37;97703.81;5015407;28;20056;-65
2021/03/11 10:52:11;;;;;;;1999.90;999.90;;;;;;;5.05;47.26;97711.66;5013155;28;20285;-66
2021/03/11 10:54:39;;;;;;;1999.90;999.90;;;;;;;4.84;47.60;97703.03;5009645;28;20128;-65
2021/03/11 10:57:10;;;;;;;1999.90;999.90;;;;;;;4.79;48.30;97702.31;5012866;28;20415;-66
2021/03/11 10:59:58;;;;;;;1999.90;999.90;;;;;;;5.25;47.12;97704.94;5002613;28;20053;-66
2021/03/11 11:02:26;;;;;;;1999.90;999.90;;;;;;;5.17;47.22;97685.66;5015874;28;20049;-66
2021/03/11 11:04:54;;;;;;;1999.90;999.90;;;;;;;4.98;47.65;97672.88;5014379;28;20049;-66
2021/03/11 11:07:22;;;;;;;1999.90;999.90;;;;;;;5.01;47.98;97682.44;5015287;28;20049;-66
2021/03/11 11:09:49;;;;;;;1999.90;999.90;;;;;;;5.11;48.00;97676.75;5018227;28;20045;-66
2021/03/11 11:12:18;;;;;;;1999.90;999.90;;;;;;;5.09;47.54;97655.13;5020627;28;20060;-66
2021/03/11 11:14:46;;;;;;;1999.90;999.90;;;;;;;5.30;47.56;97654.69;5016000;28;20056;-66
2021/03/11 11:17:14;;;;;;;1999.90;999.90;;;;;;;5.32;48.55;97659.84;5014210;28;20061;-66